createdAt,value
2018-04-14T00:01:40.861Z,100895.16
2018-04-14T00:04:06.821Z,100902.56
2018-04-14T00:06:32.775Z,100903.41
2018-04-14T00:08:58.731Z,100899.20
2018-04-14T00:11:24.673Z,100898.01
2018-04-14T00:13:50.719Z,100902.99
2018-04-14T00:16:16.664Z,100901.74
2018-04-14T00:18:42.643Z,100900.14
2018-04-14T00:21:08.633Z,100909.58
2018-04-14T00:23:34.579Z,100913.91
2018-04-14T00:26:00.527Z,100918.69
2018-04-14T00:28:26.472Z,100913.91
2018-04-14T00:30:52.452Z,100913.47
2018-04-14T00:33:18.396Z,100916.61
2018-04-14T00:35:44.360Z,100916.81
2018-04-14T00:38:10.309Z,100923.91
2018-04-14T00:40:36.283Z,100930.02
2018-04-14T00:43:02.235Z,100922.96
2018-04-14T00:45:28.176Z,100926.27
2018-04-14T00:47:54.121Z,100927.59
2018-04-14T00:50:20.062Z,100931.95
2018-04-14T00:52:46.017Z,100931.95
2018-04-14T00:55:11.964Z,100927.05
2018-04-14T00:57:37.909Z,100926.83
2018-04-14T01:00:03.858Z,100920.31
2018-04-14T01:02:29.824Z,100918.53
2018-04-14T01:04:55.771Z,100923.00
2018-04-14T01:07:21.712Z,100926.91
2018-04-14T01:09:47.667Z,100926.84
2018-04-14T01:12:13.604Z,100927.45
2018-04-14T01:14:39.560Z,100930.09
2018-04-14T01:17:05.511Z,100928.16
2018-04-14T01:19:31.473Z,100929.89
2018-04-14T01:21:57.448Z,100929.27
2018-04-14T01:24:23.403Z,100926.61
2018-04-14T01:26:49.342Z,100924.20
2018-04-14T01:29:15.312Z,100925.36
2018-04-14T01:31:41.272Z,100925.31
2018-04-14T01:34:07.216Z,100925.11
2018-04-14T01:36:33.231Z,100928.51
2018-04-14T01:38:59.168Z,100934.84
2018-04-14T01:41:25.112Z,100933.57
2018-04-14T01:43:51.157Z,100931.34
2018-04-14T01:46:17.112Z,100934.84
2018-04-14T01:48:43.077Z,100932.53
2018-04-14T01:51:09.024Z,100936.20
2018-04-14T01:53:35.002Z,100937.73
2018-04-14T01:56:00.938Z,100941.45
2018-04-14T01:58:26.880Z,100937.19
2018-04-14T02:00:52.838Z,100932.33
2018-04-14T02:03:18.780Z,100933.65
2018-04-14T02:05:44.747Z,100937.11
2018-04-14T02:08:10.709Z,100939.63
2018-04-14T02:10:36.672Z,100941.16
2018-04-14T02:13:02.616Z,100936.28
2018-04-14T02:15:28.600Z,100940.38
2018-04-14T02:17:54.530Z,100939.64
2018-04-14T02:20:20.485Z,100942.28
2018-04-14T02:22:46.432Z,100942.97
2018-04-14T02:25:12.392Z,100943.72
2018-04-14T02:27:38.333Z,100943.59
2018-04-14T02:30:04.281Z,100943.63
2018-04-14T02:32:30.235Z,100944.20
2018-04-14T02:34:56.196Z,100944.70
2018-04-14T02:37:22.140Z,100949.83
2018-04-14T02:39:48.085Z,100947.39
2018-04-14T02:42:14.024Z,100950.72
2018-04-14T02:44:39.997Z,100946.02
2018-04-14T02:47:05.961Z,100946.28
2018-04-14T02:49:31.901Z,100947.59
2018-04-14T02:51:57.850Z,100947.39
2018-04-14T02:54:23.784Z,100954.18
2018-04-14T02:56:49.740Z,100957.61
2018-04-14T02:59:15.690Z,100953.66
2018-04-14T03:01:41.664Z,100955.51
2018-04-14T03:04:07.604Z,100957.73
2018-04-14T03:06:33.564Z,100966.98
2018-04-14T03:08:59.508Z,100966.31
2018-04-14T03:11:25.467Z,100969.00
2018-04-14T03:13:51.427Z,100970.89
2018-04-14T03:16:17.380Z,100965.24
2018-04-14T03:18:43.356Z,100962.19
2018-04-14T03:21:09.345Z,100969.16
2018-04-14T03:23:35.276Z,100973.66
2018-04-14T03:26:01.237Z,100973.73
2018-04-14T03:28:27.244Z,100978.60
2018-04-14T03:30:53.208Z,100987.69
2018-04-14T03:33:19.140Z,100982.06
2018-04-14T03:35:45.205Z,100991.02
2018-04-14T03:38:11.160Z,100992.05
2018-04-14T03:40:37.107Z,100994.15
2018-04-14T03:43:03.056Z,100993.45
2018-04-14T03:45:29.012Z,100991.59
2018-04-14T03:47:54.967Z,101004.30
2018-04-14T03:50:20.912Z,101002.77
2018-04-14T03:52:46.926Z,101010.19
2018-04-14T03:55:12.871Z,101010.73
2018-04-14T03:57:38.818Z,101013.37
2018-04-14T04:00:04.756Z,101010.19
2018-04-14T04:02:30.723Z,101017.28
2018-04-14T04:04:56.668Z,101013.86
2018-04-14T04:07:22.601Z,101016.02
2018-04-14T04:09:48.547Z,101019.84
2018-04-14T04:12:14.517Z,101022.81
2018-04-14T04:14:40.457Z,101028.95
2018-04-14T04:17:06.428Z,101026.52
2018-04-14T04:19:32.390Z,101035.27
2018-04-14T04:21:58.360Z,101039.42
2018-04-14T04:24:24.311Z,101033.73
2018-04-14T04:26:50.286Z,101038.39
2018-04-14T04:29:16.220Z,101043.18
2018-04-14T04:31:42.196Z,101048.16
2018-04-14T04:34:08.142Z,101040.66
2018-04-14T04:36:34.084Z,101044.83
2018-04-14T04:39:00.037Z,101048.99
2018-04-14T04:41:25.988Z,101047.27
2018-04-14T04:43:51.951Z,101052.95
2018-04-14T04:46:17.893Z,101058.81
2018-04-14T04:48:43.881Z,101061.66
2018-04-14T04:51:09.790Z,101060.41
2018-04-14T04:53:35.808Z,101060.41
2018-04-14T04:56:01.742Z,101071.09
2018-04-14T04:58:27.675Z,101077.98
2018-04-14T05:00:53.598Z,101081.11
2018-04-14T05:03:19.546Z,101089.98
2018-04-14T05:05:45.500Z,101086.84
2018-04-14T05:08:11.477Z,101087.42
2018-04-14T05:10:37.421Z,101087.55
2018-04-14T05:13:03.640Z,101088.87
2018-04-14T05:15:29.608Z,101091.91
2018-04-14T05:17:55.543Z,101100.81
2018-04-14T05:20:21.492Z,101101.64
2018-04-14T05:22:47.568Z,101107.91
2018-04-14T05:25:13.528Z,101116.93
2018-04-14T05:27:39.492Z,101118.38
2018-04-14T05:30:05.465Z,101114.55
2018-04-14T05:32:31.417Z,101122.22
2018-04-14T05:34:57.357Z,101122.48
2018-04-14T05:37:23.322Z,101124.02
2018-04-14T05:39:49.262Z,101126.64
2018-04-14T05:42:15.268Z,101130.40
2018-04-14T05:44:41.216Z,101120.61
2018-04-14T05:47:07.175Z,101119.71
2018-04-14T05:49:33.128Z,101130.55
2018-04-14T05:51:59.111Z,101126.84
2018-04-14T05:54:25.136Z,101132.91
2018-04-14T05:56:51.117Z,101137.77
2018-04-14T05:59:17.062Z,101141.93
2018-04-14T06:01:43.004Z,101144.64
2018-04-14T06:04:08.968Z,101144.88
2018-04-14T06:06:34.953Z,101148.80
2018-04-14T06:09:00.953Z,101150.89
2018-04-14T06:11:26.857Z,101142.15
2018-04-14T06:13:52.824Z,101148.75
2018-04-14T06:16:18.773Z,101148.16
2018-04-14T06:18:44.740Z,101150.66
2018-04-14T06:21:10.756Z,101152.36
2018-04-14T06:23:36.655Z,101154.44
2018-04-14T06:26:02.627Z,101158.41
2018-04-14T06:28:28.571Z,101153.92
2018-04-14T06:30:54.552Z,101164.67
2018-04-14T06:33:20.532Z,101168.84
2018-04-14T06:35:46.485Z,101173.95
2018-04-14T06:38:12.468Z,101184.50
2018-04-14T06:40:38.429Z,101187.76
2018-04-14T06:43:04.363Z,101185.58
2018-04-14T06:45:30.312Z,101197.69
2018-04-14T06:47:56.264Z,101191.88
2018-04-14T06:50:22.215Z,101195.83
2018-04-14T06:52:48.172Z,101198.39
2018-04-14T06:55:14.131Z,101199.30
2018-04-14T06:57:40.084Z,101195.12
2018-04-14T07:00:06.036Z,101202.26
2018-04-14T07:02:32.003Z,101207.29
2018-04-14T07:04:57.951Z,101209.30
2018-04-14T07:07:23.923Z,101208.18
2018-04-14T07:09:49.867Z,101214.11
2018-04-14T07:12:15.837Z,101209.34
2018-04-14T07:14:41.776Z,101214.52
2018-04-14T07:17:07.818Z,101216.17
2018-04-14T07:19:33.765Z,101211.95
2018-04-14T07:21:59.804Z,101219.81
2018-04-14T07:24:25.821Z,101220.95
2018-04-14T07:26:51.864Z,101225.30
2018-04-14T07:29:17.906Z,101225.70
2018-04-14T07:31:43.923Z,101233.31
2018-04-14T07:34:09.918Z,101231.23
2018-04-14T07:36:35.872Z,101234.61
2018-04-14T07:39:01.815Z,101236.13
2018-04-14T07:41:27.763Z,101229.33
2018-04-14T07:43:53.744Z,101237.42
2018-04-14T07:46:19.705Z,101244.36
2018-04-14T07:48:45.742Z,101244.06
2018-04-14T07:51:11.700Z,101252.98
2018-04-14T07:53:37.656Z,101253.08
2018-04-14T07:56:03.632Z,101251.17
2018-04-14T07:58:29.571Z,101260.35
2018-04-14T08:00:55.530Z,101253.55
2018-04-14T08:03:21.520Z,101260.83
2018-04-14T08:05:47.474Z,101264.77
2018-04-14T08:08:13.420Z,101266.38
2018-04-14T08:10:39.414Z,101262.67
2018-04-14T08:13:05.353Z,101259.75
2018-04-14T08:15:31.325Z,101268.20
2018-04-14T08:17:57.296Z,101269.91
2018-04-14T08:20:23.236Z,101266.22
2018-04-14T08:22:49.172Z,101271.08
2018-04-14T08:25:15.232Z,101272.13
2018-04-14T08:27:41.188Z,101280.27
2018-04-14T08:30:07.196Z,101276.70
2018-04-14T08:32:33.117Z,101282.00
2018-04-14T08:34:59.048Z,101284.00
2018-04-14T08:37:25.085Z,101276.88
2018-04-14T08:39:50.974Z,101280.13
2018-04-14T08:42:16.925Z,101286.30
2018-04-14T08:44:42.873Z,101287.87
2018-04-14T08:47:08.896Z,101287.26
2018-04-14T08:49:34.850Z,101284.97
2018-04-14T08:52:01.110Z,101287.75
2018-04-14T08:54:27.076Z,101287.75
2018-04-14T08:56:53.042Z,101293.89
2018-04-14T08:59:18.979Z,101293.11
2018-04-14T09:01:44.928Z,101294.22
2018-04-14T09:04:10.913Z,101294.25
2018-04-14T09:06:36.903Z,101294.69
2018-04-14T09:09:02.924Z,101293.52
2018-04-14T09:11:28.845Z,101295.25
2018-04-14T09:13:54.795Z,101292.36
2018-04-14T09:16:20.739Z,101295.77
2018-04-14T09:18:46.693Z,101294.42
2018-04-14T09:21:12.648Z,101300.51
2018-04-14T09:23:38.719Z,101295.05
2018-04-14T09:26:04.729Z,101301.41
2018-04-14T09:28:30.672Z,101297.04
2018-04-14T09:30:56.628Z,101299.90
2018-04-14T09:33:22.588Z,101303.88
2018-04-14T09:35:48.543Z,101301.91
2018-04-14T09:38:14.491Z,101301.69
2018-04-14T09:40:40.430Z,101292.10
2018-04-14T09:43:06.380Z,101294.72
2018-04-14T09:45:32.351Z,101290.48
2018-04-14T09:47:58.305Z,101295.98
2018-04-14T09:50:24.288Z,101291.08
2018-04-14T09:52:50.240Z,101287.75
2018-04-14T09:55:16.243Z,101287.61
2018-04-14T09:57:42.207Z,101289.17
2018-04-14T10:00:08.156Z,101284.59
2018-04-14T10:02:34.091Z,101285.92
2018-04-14T10:05:00.060Z,101280.84
2018-04-14T10:07:25.996Z,101287.22
2018-04-14T10:09:51.970Z,101279.45
2018-04-14T10:12:17.895Z,101280.42
2018-04-14T10:14:43.885Z,101278.39
2018-04-14T10:17:09.824Z,101280.13
2018-04-14T10:19:35.760Z,101283.06
2018-04-14T10:22:01.732Z,101281.20
2018-04-14T10:24:27.668Z,101275.95
2018-04-14T10:26:53.651Z,101275.88
2018-04-14T10:29:19.579Z,101271.99
2018-04-14T10:31:45.548Z,101276.81
2018-04-14T10:34:11.588Z,101274.63
2018-04-14T10:36:37.576Z,101273.13
2018-04-14T10:39:03.512Z,101266.89
2018-04-14T10:41:29.468Z,101270.69
2018-04-14T10:43:55.439Z,101266.52
2018-04-14T10:46:21.361Z,101257.98
2018-04-14T10:48:47.363Z,101266.19
2018-04-14T10:51:13.311Z,101265.13
2018-04-14T10:53:39.267Z,101258.42
2018-04-14T10:56:05.208Z,101265.38
2018-04-14T10:58:31.356Z,101256.55
2018-04-14T11:00:57.296Z,101258.62
2018-04-14T11:03:23.233Z,101261.66
2018-04-14T11:05:49.176Z,101260.00
2018-04-14T11:08:15.144Z,101260.34
2018-04-14T11:10:41.092Z,101256.86
2018-04-14T11:13:07.044Z,101264.03
2018-04-14T11:15:32.975Z,101263.42
2018-04-14T11:17:58.917Z,101261.88
2018-04-14T11:20:24.877Z,101261.20
2018-04-14T11:22:50.853Z,101250.64
2018-04-14T11:25:16.832Z,101251.56
2018-04-14T11:27:42.768Z,101254.05
2018-04-14T11:30:08.708Z,101255.64
2018-04-14T11:32:34.658Z,101252.59
2018-04-14T11:35:00.604Z,101254.11
2018-04-14T11:37:26.564Z,101243.48
2018-04-14T11:39:52.528Z,101245.17
2018-04-14T11:42:18.466Z,101250.44
2018-04-14T11:44:44.417Z,101254.11
2018-04-14T11:47:10.389Z,101247.91
2018-04-14T11:49:36.346Z,101249.16
2018-04-14T11:52:02.293Z,101249.44
2018-04-14T11:54:28.270Z,101249.09
2018-04-14T11:56:54.211Z,101255.84
2018-04-14T11:59:20.173Z,101260.47
2018-04-14T12:01:46.135Z,101271.23
2018-04-14T12:04:12.082Z,101263.68
2018-04-14T12:06:38.010Z,101262.10
2018-04-14T12:09:03.988Z,101262.31
2018-04-14T12:11:29.916Z,101266.52
2018-04-14T12:13:55.884Z,101259.94
2018-04-14T12:16:21.833Z,101257.08
2018-04-14T12:18:47.783Z,101262.85
2018-04-14T12:21:13.797Z,101254.66
2018-04-14T12:23:39.758Z,101263.42
2018-04-14T12:26:05.762Z,101263.22
2018-04-14T12:28:31.729Z,101255.42
2018-04-14T12:30:57.687Z,101256.12
2018-04-14T12:33:23.617Z,101259.50
2018-04-14T12:35:49.585Z,101261.95
2018-04-14T12:38:15.524Z,101259.27
2018-04-14T12:40:41.531Z,101259.27
2018-04-14T12:43:07.479Z,101254.94
2018-04-14T12:45:33.457Z,101252.65
2018-04-14T12:47:59.391Z,101257.92
2018-04-14T12:50:25.438Z,101255.28
2018-04-14T12:52:51.387Z,101255.55
2018-04-14T12:55:17.323Z,101254.23
2018-04-14T12:57:43.311Z,101246.72
2018-04-14T13:00:09.255Z,101249.52
2018-04-14T13:02:35.200Z,101244.94
2018-04-14T13:05:01.155Z,101238.88
2018-04-14T13:07:27.146Z,101244.04
2018-04-14T13:09:53.081Z,101242.89
2018-04-14T13:12:19.036Z,101242.34
2018-04-14T13:14:44.981Z,101238.28
2018-04-14T13:17:10.936Z,101232.16
2018-04-14T13:19:36.924Z,101242.64
2018-04-14T13:22:02.882Z,101242.77
2018-04-14T13:24:28.841Z,101237.88
2018-04-14T13:26:54.823Z,101239.98
2018-04-14T13:29:20.781Z,101234.84
2018-04-14T13:31:46.753Z,101242.16
2018-04-14T13:34:12.721Z,101241.80
2018-04-14T13:36:38.780Z,101234.59
2018-04-14T13:39:04.772Z,101228.11
2018-04-14T13:41:30.733Z,101227.13
2018-04-14T13:43:56.672Z,101231.23
2018-04-14T13:46:22.682Z,101235.70
2018-04-14T13:48:48.678Z,101232.98
2018-04-14T13:51:14.734Z,101234.80
2018-04-14T13:53:40.752Z,101227.73
2018-04-14T13:56:06.780Z,101217.25
2018-04-14T13:58:32.773Z,101216.56
2018-04-14T14:00:58.741Z,101213.70
2018-04-14T14:03:24.726Z,101202.95
2018-04-14T14:05:50.679Z,101203.70
2018-04-14T14:08:16.736Z,101206.46
2018-04-14T14:10:42.759Z,101207.55
2018-04-14T14:13:08.728Z,101199.95
2018-04-14T14:15:34.724Z,101197.66
2018-04-14T14:18:00.668Z,101196.87
2018-04-14T14:20:26.636Z,101195.24
2018-04-14T14:22:52.586Z,101187.72
2018-04-14T14:25:18.620Z,101189.43
2018-04-14T14:27:44.565Z,101182.95
2018-04-14T14:30:10.515Z,101177.55
2018-04-14T14:32:36.493Z,101174.50
2018-04-14T14:35:02.438Z,101176.57
2018-04-14T14:37:28.415Z,101173.33
2018-04-14T14:39:54.366Z,101168.20
2018-04-14T14:42:20.447Z,101169.45
2018-04-14T14:44:46.448Z,101165.78
2018-04-14T14:47:12.397Z,101168.05
2018-04-14T14:49:38.336Z,101159.71
2018-04-14T14:52:04.281Z,101168.45
2018-04-14T14:54:30.240Z,101158.67
2018-04-14T14:56:56.241Z,101162.97
2018-04-14T14:59:22.329Z,101163.55
2018-04-14T15:01:48.265Z,101151.71
2018-04-14T15:04:14.212Z,101153.60
2018-04-14T15:06:40.174Z,101152.58
2018-04-14T15:09:06.115Z,101153.11
2018-04-14T15:11:32.098Z,101151.16
2018-04-14T15:13:58.040Z,101152.48
2018-04-14T15:16:24.017Z,101146.38
2018-04-14T15:18:49.972Z,101147.75
2018-04-14T15:21:15.956Z,101144.37
2018-04-14T15:23:41.984Z,101141.37
2018-04-14T15:26:07.940Z,101149.86
2018-04-14T15:28:33.959Z,101148.34
2018-04-14T15:30:59.961Z,101144.45
2018-04-14T15:33:26.000Z,101149.37
2018-04-14T15:35:51.948Z,101152.50
2018-04-14T15:38:17.910Z,101155.22
2018-04-14T15:40:43.858Z,101151.62
2018-04-14T15:43:09.817Z,101150.83
2018-04-14T15:45:35.842Z,101147.77
2018-04-14T15:48:01.775Z,101145.14
2018-04-14T15:50:27.872Z,101138.02
2018-04-14T15:52:53.817Z,101142.37
2018-04-14T15:55:19.775Z,101142.28
2018-04-14T15:57:45.740Z,101137.30
2018-04-14T16:00:11.713Z,101140.34
2018-04-14T16:02:37.660Z,101138.31
2018-04-14T16:05:03.646Z,101142.01
2018-04-14T16:07:29.585Z,101143.17
2018-04-14T16:09:55.608Z,101144.16
2018-04-14T16:12:21.656Z,101143.13
2018-04-14T16:14:47.600Z,101139.22
2018-04-14T16:17:13.548Z,101145.00
2018-04-14T16:19:39.508Z,101149.09
2018-04-14T16:22:05.552Z,101144.17
2018-04-14T16:24:31.540Z,101141.33
2018-04-14T16:26:57.508Z,101143.40
2018-04-14T16:29:23.484Z,101140.92
2018-04-14T16:31:49.455Z,101137.83
2018-04-14T16:34:15.404Z,101138.61
2018-04-14T16:36:41.364Z,101141.95
2018-04-14T16:39:07.329Z,101144.52
2018-04-14T16:41:33.281Z,101141.17
2018-04-14T16:43:59.323Z,101141.87
2018-04-14T16:46:25.276Z,101142.58
2018-04-14T16:48:51.248Z,101145.70
2018-04-14T16:51:17.228Z,101142.58
2018-04-14T16:53:43.188Z,101146.34
2018-04-14T16:56:09.170Z,101144.01
2018-04-14T16:58:35.171Z,101132.70
2018-04-14T17:01:01.143Z,101139.22
2018-04-14T17:03:27.096Z,101137.78
2018-04-14T17:05:53.052Z,101135.43
2018-04-14T17:08:19.000Z,101143.89
2018-04-14T17:10:44.939Z,101135.19
2018-04-14T17:13:10.916Z,101140.55
2018-04-14T17:15:36.856Z,101135.64
2018-04-14T17:18:02.819Z,101137.50
2018-04-14T17:20:28.783Z,101137.51
2018-04-14T17:22:54.768Z,101135.90
2018-04-14T17:25:20.738Z,101133.20
2018-04-14T17:27:46.678Z,101133.75
2018-04-14T17:30:12.674Z,101131.52
2018-04-14T17:32:38.615Z,101142.19
2018-04-14T17:35:04.604Z,101134.39
2018-04-14T17:37:30.552Z,101141.05
2018-04-14T17:39:56.492Z,101138.48
2018-04-14T17:42:22.440Z,101138.61
2018-04-14T17:44:48.376Z,101138.84
2018-04-14T17:47:14.332Z,101141.26
2018-04-14T17:49:40.287Z,101135.90
2018-04-14T17:52:06.236Z,101137.70
2018-04-14T17:54:32.190Z,101138.83
2018-04-14T17:56:58.143Z,101134.74
2018-04-14T17:59:24.105Z,101138.71
2018-04-14T18:01:50.068Z,101133.27
2018-04-14T18:04:16.035Z,101133.55
2018-04-14T18:06:41.984Z,101126.25
2018-04-14T18:09:07.946Z,101134.05
2018-04-14T18:11:33.901Z,101130.59
2018-04-14T18:13:59.835Z,101126.97
2018-04-14T18:16:25.779Z,101129.39
2018-04-14T18:18:51.741Z,101125.42
2018-04-14T18:21:17.771Z,101129.66
2018-04-14T18:23:43.744Z,101125.91
2018-04-14T18:26:09.807Z,101124.31
2018-04-14T18:28:35.724Z,101124.64
2018-04-14T18:31:01.677Z,101127.63
2018-04-14T18:33:27.628Z,101128.66
2018-04-14T18:35:53.574Z,101134.44
2018-04-14T18:38:19.544Z,101133.54
2018-04-14T18:40:45.479Z,101143.12
2018-04-14T18:43:11.425Z,101146.41
2018-04-14T18:45:37.440Z,101150.09
2018-04-14T18:48:03.389Z,101156.56
2018-04-14T18:50:29.341Z,101151.19
2018-04-14T18:52:55.296Z,101148.64
2018-04-14T18:55:21.233Z,101140.84
2018-04-14T18:57:47.204Z,101149.09
2018-04-14T19:00:13.174Z,101149.09
2018-04-14T19:02:39.129Z,101155.98
2018-04-14T19:05:05.097Z,101152.02
2018-04-14T19:07:31.056Z,101149.18
2018-04-14T19:09:57.020Z,101153.76
2018-04-14T19:12:22.964Z,101154.95
2018-04-14T19:14:48.916Z,101152.65
2018-04-14T19:17:14.864Z,101153.47
2018-04-14T19:19:40.853Z,101154.66
2018-04-14T19:22:06.819Z,101157.37
2018-04-14T19:24:32.785Z,101161.82
2018-04-14T19:26:58.691Z,101158.91
2018-04-14T19:29:24.672Z,101154.33
2018-04-14T19:31:50.604Z,101157.30
2018-04-14T19:34:16.560Z,101164.88
2018-04-14T19:36:42.512Z,101157.31
2018-04-14T19:39:08.476Z,101149.26
2018-04-14T19:41:34.436Z,101154.95
2018-04-14T19:44:00.404Z,101155.36
2018-04-14T19:46:26.364Z,101155.16
2018-04-14T19:48:52.336Z,101148.89
2018-04-14T19:51:18.276Z,101146.12
2018-04-14T19:53:44.352Z,101141.67
2018-04-14T19:56:10.308Z,101145.62
2018-04-14T19:58:36.288Z,101144.51
2018-04-14T20:01:02.340Z,101142.28
2018-04-14T20:03:28.283Z,101139.80
2018-04-14T20:05:54.312Z,101142.23
2018-04-14T20:08:20.285Z,101139.52
2018-04-14T20:10:46.265Z,101134.72
2018-04-14T20:13:12.209Z,101142.16
2018-04-14T20:15:38.157Z,101143.97
2018-04-14T20:18:04.107Z,101150.20
2018-04-14T20:20:30.074Z,101142.98
2018-04-14T20:22:56.089Z,101148.88
2018-04-14T20:25:22.034Z,101145.49
2018-04-14T20:27:47.977Z,101142.70
2018-04-14T20:30:13.929Z,101137.01
2018-04-14T20:32:39.876Z,101140.06
2018-04-14T20:35:05.840Z,101138.63
2018-04-14T20:37:31.788Z,101131.12
2018-04-14T20:39:57.760Z,101134.05
2018-04-14T20:42:23.737Z,101132.80
2018-04-14T20:44:49.704Z,101125.42
2018-04-14T20:47:15.693Z,101119.59
2018-04-14T20:49:41.600Z,101126.33
2018-04-14T20:52:07.565Z,101119.16
2018-04-14T20:54:33.503Z,101118.11
2018-04-14T20:56:59.459Z,101112.50
2018-04-14T20:59:25.421Z,101120.00
2018-04-14T21:01:51.377Z,101111.59
2018-04-14T21:04:17.353Z,101114.73
2018-04-14T21:06:43.308Z,101110.12
2018-04-14T21:09:09.279Z,101108.75
2018-04-14T21:11:35.212Z,101106.12
2018-04-14T21:14:01.159Z,101112.36
2018-04-14T21:16:27.135Z,101110.70
2018-04-14T21:18:53.394Z,101112.56
2018-04-14T21:21:19.321Z,101106.95
2018-04-14T21:23:45.279Z,101107.64
2018-04-14T21:26:11.244Z,101106.12
2018-04-14T21:28:37.206Z,101107.94
2018-04-14T21:31:03.185Z,101108.76
2018-04-14T21:33:29.144Z,101102.28
2018-04-14T21:35:55.117Z,101103.27
2018-04-14T21:38:21.145Z,101099.03
2018-04-14T21:40:47.098Z,101100.84
2018-04-14T21:43:13.067Z,101103.19
2018-04-14T21:45:39.059Z,101105.08
2018-04-14T21:48:05.029Z,101097.01
2018-04-14T21:50:30.972Z,101092.22
2018-04-14T21:52:56.925Z,101094.03
2018-04-14T21:55:22.880Z,101093.46
2018-04-14T21:57:48.834Z,101090.98
2018-04-14T22:00:14.808Z,101094.16
2018-04-14T22:02:40.761Z,101087.92
2018-04-14T22:05:06.711Z,101090.78
2018-04-14T22:07:32.652Z,101092.92
2018-04-14T22:09:58.610Z,101090.08
2018-04-14T22:12:24.570Z,101093.46
2018-04-14T22:14:50.519Z,101090.78
2018-04-14T22:17:16.588Z,101081.45
2018-04-14T22:19:42.532Z,101083.52
2018-04-14T22:22:08.488Z,101084.30
2018-04-14T22:24:34.435Z,101087.69
2018-04-14T22:27:00.404Z,101084.42
2018-04-14T22:29:26.371Z,101079.23
2018-04-14T22:31:52.363Z,101083.80
2018-04-14T22:34:18.775Z,101087.48
2018-04-14T22:36:44.728Z,101092.42
2018-04-14T22:39:10.690Z,101101.04
2018-04-14T22:41:36.641Z,101110.82
2018-04-14T22:44:02.575Z,101114.08
2018-04-14T22:46:28.536Z,101121.87
2018-04-14T22:48:54.484Z,101124.88
2018-04-14T22:51:20.417Z,101125.76
2018-04-14T22:53:46.367Z,101123.48
2018-04-14T22:56:12.328Z,101124.52
2018-04-14T22:58:38.272Z,101127.03
2018-04-14T23:01:04.230Z,101127.93
2018-04-14T23:03:30.180Z,101130.78
2018-04-14T23:05:56.236Z,101128.84
2018-04-14T23:08:22.186Z,101133.67
2018-04-14T23:10:48.137Z,101136.81
2018-04-14T23:13:14.103Z,101147.03
2018-04-14T23:15:40.085Z,101142.45
2018-04-14T23:18:06.031Z,101143.36
2018-04-14T23:20:32.011Z,101136.06
2018-04-14T23:22:58.039Z,101138.90
2018-04-14T23:25:24.004Z,101141.80
2018-04-14T23:27:49.981Z,101138.33
2018-04-14T23:30:15.954Z,101143.20
2018-04-14T23:32:41.921Z,101138.28
2018-04-14T23:35:07.956Z,101146.04
2018-04-14T23:37:33.908Z,101146.05
2018-04-14T23:39:59.872Z,101138.28
2018-04-14T23:42:25.816Z,101139.53
2018-04-14T23:44:51.815Z,101137.02
2018-04-14T23:47:17.772Z,101128.06
2018-04-14T23:49:43.747Z,101129.88
2018-04-14T23:52:09.680Z,101125.91
2018-04-14T23:54:35.639Z,101130.83
2018-04-14T23:57:01.604Z,101123.28
2018-04-14T23:59:27.555Z,101124.31
